createdAt,value
2018-07-27T05:10:49.001Z,4.40
2018-07-27T05:15:53.814Z,5.30
2018-07-27T05:20:58.483Z,5.20
2018-07-27T05:26:03.404Z,4.53
2018-07-27T05:31:07.969Z,4.40
2018-07-27T05:36:12.532Z,4.60
2018-07-27T05:41:17.089Z,3.83
2018-07-27T05:46:21.653Z,4.60
2018-07-27T05:51:26.336Z,4.40
2018-07-27T05:56:31.673Z,5.43
2018-07-27T06:01:36.296Z,4.97
2018-07-27T06:06:40.981Z,5.30
2018-07-27T06:11:45.541Z,5.20
2018-07-27T06:16:49.892Z,4.50
2018-07-27T06:21:55.026Z,4.83
2018-07-27T06:26:59.708Z,4.87
2018-07-27T06:32:04.391Z,6.00
2018-07-27T06:37:09.555Z,5.40
2018-07-27T06:42:14.594Z,6.10
2018-07-27T06:47:19.158Z,5.70
2018-07-27T06:52:23.921Z,5.47
2018-07-27T06:57:28.421Z,5.37
2018-07-27T07:02:33.080Z,5.27
2018-07-27T07:07:37.301Z,5.33
2018-07-27T07:12:41.965Z,5.30
2018-07-27T07:17:48.578Z,4.73
2018-07-27T07:22:53.610Z,5.77
2018-07-27T07:27:58.307Z,5.13
2018-07-27T07:33:03.146Z,5.27
2018-07-27T07:38:07.713Z,5.00
2018-07-27T07:43:12.347Z,4.93
2018-07-27T07:48:17.018Z,4.73
2018-07-27T07:53:21.704Z,4.57
2018-07-27T07:58:26.441Z,4.57
2018-07-27T08:03:33.468Z,4.30
2018-07-27T08:08:38.028Z,4.57
2018-07-27T08:13:42.848Z,4.80
2018-07-27T08:18:47.508Z,4.60
2018-07-27T08:23:52.431Z,4.67
2018-07-27T08:28:56.994Z,6.10
2018-07-27T08:34:01.917Z,4.37
2018-07-27T08:39:09.610Z,4.40
2018-07-27T08:44:15.975Z,4.37
2018-07-27T08:49:20.403Z,4.50
2018-07-27T08:54:25.105Z,4.47
2018-07-27T08:59:29.647Z,4.70
2018-07-27T09:04:34.567Z,5.20
2018-07-27T09:09:39.133Z,5.43
2018-07-27T09:14:43.930Z,5.20
2018-07-27T09:19:48.858Z,5.60
2018-07-27T09:24:53.820Z,5.80
2018-07-27T09:29:58.462Z,5.50
2018-07-27T09:35:03.052Z,5.63
2018-07-27T09:40:07.937Z,5.27
2018-07-27T09:45:12.627Z,5.13
2018-07-27T09:50:17.420Z,5.43
2018-07-27T09:55:21.989Z,5.47
2018-07-27T10:00:31.825Z,5.93
2018-07-27T10:05:36.507Z,5.17
2018-07-27T10:10:41.255Z,5.20
2018-07-27T10:15:45.748Z,5.50
2018-07-27T10:20:50.915Z,5.00
2018-07-27T10:25:55.531Z,5.20
2018-07-27T10:31:01.419Z,4.72
2018-07-27T10:36:06.037Z,4.20
2018-07-27T10:41:11.319Z,5.30
2018-07-27T10:46:15.879Z,4.83
2018-07-27T10:51:21.407Z,4.90
2018-07-27T10:56:26.527Z,4.73
2018-07-27T11:01:31.370Z,4.10
2018-07-27T11:06:36.166Z,4.35
2018-07-27T11:11:40.848Z,4.37
2018-07-27T11:16:45.530Z,4.67
2018-07-27T11:21:50.105Z,4.40
2018-07-27T11:26:55.027Z,4.70
2018-07-27T11:31:59.575Z,4.33
2018-07-27T11:37:04.403Z,3.80
2018-07-27T11:42:09.094Z,3.75
2018-07-27T11:47:13.747Z,3.92
2018-07-27T11:52:19.152Z,3.87
2018-07-27T11:57:23.244Z,3.72
2018-07-27T12:02:27.665Z,3.45
2018-07-27T12:07:32.323Z,3.08
2018-07-27T12:12:36.416Z,3.23
2018-07-27T12:17:40.695Z,3.90
2018-07-27T12:22:47.790Z,4.10
2018-07-27T12:27:51.942Z,3.55
2018-07-27T12:32:56.054Z,3.12
2018-07-27T12:38:00.154Z,4.00
2018-07-27T12:43:04.453Z,3.87
2018-07-27T12:48:09.141Z,3.77
2018-07-27T12:53:13.221Z,3.60
2018-07-27T12:58:17.383Z,3.83
2018-07-27T13:03:21.239Z,3.98
2018-07-27T13:08:25.269Z,3.12
2018-07-27T13:13:29.373Z,3.60
2018-07-27T13:18:33.557Z,3.45
2018-07-27T13:23:38.996Z,3.50
2018-07-27T13:28:43.795Z,3.80
2018-07-27T13:34:54.810Z,3.47
2018-07-27T13:40:00.150Z,3.12
2018-07-27T13:45:04.900Z,3.40
2018-07-27T13:50:09.049Z,3.75
2018-07-27T13:55:13.412Z,3.30
2018-07-27T14:00:18.598Z,3.40
2018-07-27T14:05:23.254Z,3.67
2018-07-27T14:10:27.368Z,3.23
2018-07-27T14:15:31.740Z,2.95
2018-07-27T14:20:35.955Z,3.05
2018-07-27T14:25:40.124Z,3.37
2018-07-27T14:30:45.054Z,3.37
2018-07-27T14:35:49.264Z,3.40
2018-07-27T14:40:54.271Z,3.40
2018-07-27T14:45:58.432Z,3.40
2018-07-27T14:51:03.149Z,3.67
2018-07-27T14:56:07.550Z,3.83
2018-07-27T15:01:11.763Z,3.70
2018-07-27T15:06:16.720Z,3.53
2018-07-27T15:11:20.613Z,3.50
2018-07-27T15:16:24.573Z,3.83
2018-07-27T15:21:28.783Z,3.50
2018-07-27T15:26:32.956Z,3.80
2018-07-27T15:31:37.080Z,3.33
2018-07-27T15:36:41.217Z,3.53
2018-07-27T15:41:45.341Z,3.77
2018-07-27T15:46:49.457Z,3.93
2018-07-27T15:51:53.585Z,3.97
2018-07-27T15:56:57.661Z,3.73
2018-07-27T16:02:01.985Z,3.50
2018-07-27T16:07:07.586Z,3.63
2018-07-27T16:12:11.713Z,3.80
2018-07-27T16:17:15.903Z,3.83
2018-07-27T16:22:20.013Z,3.60
2018-07-27T16:27:24.182Z,3.37
2018-07-27T16:32:31.191Z,4.43
2018-07-27T16:37:35.404Z,3.93
2018-07-27T16:42:39.256Z,3.87
2018-07-27T16:47:43.858Z,3.73
2018-07-27T16:52:48.034Z,3.53
2018-07-27T16:57:52.131Z,4.20
2018-07-27T17:02:56.265Z,4.20
2018-07-27T17:08:00.328Z,4.50
2018-07-27T17:13:04.562Z,3.90
2018-07-27T17:18:08.970Z,4.10
2018-07-27T17:23:13.561Z,3.50
2018-07-27T17:28:17.753Z,3.73
2018-07-27T17:33:21.964Z,3.70
2018-07-27T17:38:26.107Z,3.87
2018-07-27T17:43:30.217Z,3.27
2018-07-27T17:48:34.827Z,3.50
2018-07-27T17:53:39.195Z,4.17
2018-07-27T17:58:43.376Z,3.90
2018-07-27T18:03:47.591Z,4.53
2018-07-27T18:08:51.738Z,3.80
2018-07-27T18:13:58.651Z,4.00
2018-07-27T18:19:02.788Z,4.60
2018-07-27T18:24:07.889Z,4.60
2018-07-27T18:29:12.986Z,4.10
2018-07-27T18:34:17.079Z,4.53
2018-07-27T18:39:22.278Z,4.63
2018-07-27T18:44:27.389Z,4.40
2018-07-27T18:49:31.353Z,4.47
2018-07-27T18:54:35.482Z,4.53
2018-07-27T18:59:39.760Z,5.20
2018-07-27T19:04:43.845Z,5.30
2018-07-27T19:09:47.972Z,5.60
2018-07-27T19:14:52.057Z,5.03
2018-07-27T19:19:56.635Z,5.37
2018-07-27T19:25:00.852Z,5.30
2018-07-27T19:30:07.266Z,5.50
2018-07-27T19:35:11.546Z,5.27
2018-07-27T19:40:15.699Z,5.50
2018-07-27T19:45:19.954Z,5.60
2018-07-27T19:50:24.192Z,5.60
2018-07-27T19:55:29.580Z,5.60
2018-07-27T20:00:34.005Z,6.07
2018-07-27T20:05:38.225Z,5.70
2018-07-27T20:10:42.433Z,6.03
2018-07-27T20:15:46.473Z,5.73
2018-07-27T20:20:50.574Z,6.17
2018-07-27T20:25:54.784Z,6.50
2018-07-27T20:30:59.036Z,6.77
2018-07-27T20:36:03.174Z,6.67
2018-07-27T20:41:07.563Z,6.23
2018-07-27T20:46:11.759Z,5.77
2018-07-27T20:51:16.029Z,6.07
2018-07-27T20:56:21.014Z,5.70
2018-07-27T21:01:25.173Z,6.43
2018-07-27T21:06:30.337Z,6.57
2018-07-27T21:11:34.655Z,5.77
2018-07-27T21:16:39.809Z,6.50
2018-07-27T21:21:46.178Z,6.57
2018-07-27T21:26:50.564Z,6.00
2018-07-27T21:31:54.928Z,6.07
2018-07-27T21:36:58.835Z,6.20
2018-07-27T21:42:02.876Z,5.70
2018-07-27T21:47:07.139Z,6.23
2018-07-27T21:52:11.321Z,6.43
2018-07-27T21:57:16.582Z,5.33
2018-07-27T22:02:20.757Z,5.07
2018-07-27T22:07:24.974Z,5.30
2018-07-27T22:12:29.230Z,5.53
2018-07-27T22:17:33.500Z,4.33
2018-07-27T22:22:37.719Z,4.90
2018-07-27T22:27:42.133Z,4.60
2018-07-27T22:32:46.392Z,5.03
2018-07-27T22:37:50.545Z,4.80
2018-07-27T22:42:54.628Z,4.60
2018-07-27T22:47:58.713Z,4.40
2018-07-27T22:53:03.519Z,4.50
2018-07-27T22:58:07.698Z,4.87
2018-07-27T23:03:14.671Z,5.00
2018-07-27T23:08:18.857Z,4.67
2018-07-27T23:13:23.080Z,4.83
2018-07-27T23:18:27.400Z,4.70
2018-07-27T23:23:31.829Z,4.73
2018-07-27T23:28:37.015Z,4.60
2018-07-27T23:33:42.101Z,4.53
2018-07-27T23:38:47.182Z,4.90
2018-07-27T23:43:51.335Z,4.67
2018-07-27T23:48:55.497Z,5.03
2018-07-27T23:53:59.619Z,4.67
2018-07-27T23:59:04.565Z,5.07
